createdAt,value
2022-12-11T00:00:49.388Z,8.68
2022-12-11T00:03:19.003Z,8.68
2022-12-11T00:05:46.141Z,8.66
2022-12-11T00:08:13.327Z,8.66
2022-12-11T00:10:40.075Z,8.64
2022-12-11T00:13:06.635Z,8.64
2022-12-11T00:15:33.263Z,8.64
2022-12-11T00:17:59.927Z,8.64
2022-12-11T00:20:27.253Z,8.63
2022-12-11T00:22:53.863Z,8.63
2022-12-11T00:25:20.386Z,8.62
2022-12-11T00:27:47.438Z,8.62
2022-12-11T00:30:14.957Z,8.62
2022-12-11T00:32:41.706Z,8.60
2022-12-11T00:35:09.090Z,8.55
2022-12-11T00:37:35.920Z,8.54
2022-12-11T00:40:02.580Z,8.58
2022-12-11T00:42:29.183Z,8.64
2022-12-11T00:44:56.450Z,8.68
2022-12-11T00:47:23.018Z,8.76
2022-12-11T00:49:50.096Z,8.88
2022-12-11T00:52:17.926Z,8.97
2022-12-11T00:54:45.129Z,9.05
2022-12-11T00:57:11.765Z,9.11
2022-12-11T00:59:38.605Z,9.15
2022-12-11T01:02:05.158Z,9.18
2022-12-11T01:04:31.668Z,9.22
2022-12-11T01:06:58.230Z,9.25
2022-12-11T01:09:43.361Z,9.25
2022-12-11T01:12:09.921Z,9.24
2022-12-11T01:14:36.593Z,9.18
2022-12-11T01:17:03.272Z,9.15
2022-12-11T01:19:29.897Z,9.08
2022-12-11T01:21:56.463Z,9.05
2022-12-11T01:24:23.053Z,9.02
2022-12-11T01:26:49.565Z,8.97
2022-12-11T01:29:16.101Z,8.94
2022-12-11T01:31:42.692Z,8.93
2022-12-11T01:34:09.275Z,8.92
2022-12-11T01:36:35.877Z,8.92
2022-12-11T01:39:02.427Z,8.96
2022-12-11T01:41:29.023Z,8.99
2022-12-11T01:44:21.863Z,9.01
2022-12-11T01:46:48.330Z,8.99
2022-12-11T01:49:17.451Z,8.98
2022-12-11T01:51:52.052Z,8.96
2022-12-11T01:54:21.063Z,8.93
2022-12-11T01:56:48.803Z,8.90
2022-12-11T01:59:18.347Z,8.86
2022-12-11T02:01:47.776Z,8.82
2022-12-11T02:04:15.484Z,8.78
2022-12-11T02:06:47.625Z,8.71
2022-12-11T02:09:17.818Z,8.63
2022-12-11T02:11:53.221Z,8.52
2022-12-11T02:14:31.163Z,8.47
2022-12-11T02:17:35.680Z,8.43
2022-12-11T02:20:18.819Z,8.39
2022-12-11T02:23:07.461Z,8.37
2022-12-11T02:26:04.755Z,8.39
2022-12-11T02:28:35.188Z,8.40
2022-12-11T02:31:12.438Z,8.40
2022-12-11T02:33:44.426Z,8.44
2022-12-11T02:36:11.977Z,8.46
2022-12-11T02:38:41.779Z,8.47
2022-12-11T02:41:09.656Z,8.47
2022-12-11T02:43:37.316Z,8.45
2022-12-11T02:46:04.906Z,8.39
2022-12-11T02:48:32.511Z,8.30
2022-12-11T02:51:00.423Z,8.22
2022-12-11T02:53:29.604Z,8.17
2022-12-11T02:56:06.232Z,8.14
2022-12-11T02:58:33.302Z,8.14
2022-12-11T03:01:00.059Z,8.14
2022-12-11T03:03:28.903Z,8.16
2022-12-11T03:05:55.796Z,8.15
2022-12-11T03:08:22.390Z,8.15
2022-12-11T03:10:49.102Z,8.14
2022-12-11T03:13:18.695Z,8.10
2022-12-11T03:15:55.880Z,8.07
2022-12-11T03:18:41.839Z,8.03
2022-12-11T03:21:16.938Z,8.01
2022-12-11T03:23:56.674Z,8.00
2022-12-11T03:26:24.220Z,7.98
2022-12-11T03:29:02.417Z,7.99
2022-12-11T03:31:37.890Z,8.00
2022-12-11T03:34:13.282Z,7.96
2022-12-11T03:36:40.115Z,7.90
2022-12-11T03:39:11.026Z,7.83
2022-12-11T03:41:38.696Z,7.74
2022-12-11T03:44:05.452Z,7.70
2022-12-11T03:46:35.443Z,7.65
2022-12-11T03:49:06.648Z,7.63
2022-12-11T03:51:34.357Z,7.62
2022-12-11T03:54:01.223Z,7.59
2022-12-11T03:56:29.002Z,7.58
2022-12-11T03:58:55.743Z,7.59
2022-12-11T04:01:22.308Z,7.60
2022-12-11T04:03:48.831Z,7.63
2022-12-11T04:06:15.449Z,7.64
2022-12-11T04:08:42.009Z,7.65
2022-12-11T04:11:27.229Z,7.66
2022-12-11T04:14:12.203Z,7.62
2022-12-11T04:16:38.775Z,7.60
2022-12-11T04:19:24.396Z,7.57
2022-12-11T04:22:09.892Z,7.57
2022-12-11T04:24:36.523Z,7.59
2022-12-11T04:27:03.174Z,7.60
2022-12-11T04:29:29.823Z,7.60
2022-12-11T04:31:56.368Z,7.50
2022-12-11T04:34:23.082Z,7.46
2022-12-11T04:36:50.097Z,7.43
2022-12-11T04:39:16.807Z,7.41
2022-12-11T04:41:43.482Z,7.37
2022-12-11T04:44:10.018Z,7.37
2022-12-11T04:46:36.541Z,7.39
2022-12-11T04:49:03.167Z,7.37
2022-12-11T04:51:29.924Z,7.37
2022-12-11T04:53:56.547Z,7.40
2022-12-11T04:56:23.171Z,7.45
2022-12-11T04:58:49.668Z,7.49
2022-12-11T05:01:20.106Z,7.49
2022-12-11T05:03:47.320Z,7.50
2022-12-11T05:06:14.480Z,7.53
2022-12-11T05:08:42.196Z,7.56
2022-12-11T05:11:14.818Z,7.62
2022-12-11T05:13:41.843Z,7.67
2022-12-11T05:16:10.077Z,7.71
2022-12-11T05:18:36.722Z,7.76
2022-12-11T05:21:08.878Z,7.80
2022-12-11T05:23:35.846Z,7.84
2022-12-11T05:26:21.845Z,7.83
2022-12-11T05:28:53.324Z,7.79
2022-12-11T05:31:22.379Z,7.67
2022-12-11T05:33:50.350Z,7.49
2022-12-11T05:36:20.894Z,7.46
2022-12-11T05:38:47.944Z,7.46
2022-12-11T05:41:16.995Z,7.48
2022-12-11T05:43:43.910Z,7.48
2022-12-11T05:46:13.557Z,7.49
2022-12-11T05:48:41.430Z,7.47
2022-12-11T05:51:08.652Z,7.47
2022-12-11T05:53:39.364Z,7.51
2022-12-11T05:56:08.379Z,7.55
2022-12-11T05:58:35.420Z,7.53
2022-12-11T06:01:02.732Z,7.58
2022-12-11T06:03:29.337Z,7.65
2022-12-11T06:05:55.878Z,7.71
2022-12-11T06:08:22.570Z,7.73
2022-12-11T06:10:50.313Z,7.77
2022-12-11T06:13:17.067Z,7.83
2022-12-11T06:15:43.562Z,7.83
2022-12-11T06:18:10.750Z,7.82
2022-12-11T06:20:37.607Z,7.80
2022-12-11T06:23:04.835Z,7.80
2022-12-11T06:25:31.511Z,7.79
2022-12-11T06:27:58.405Z,7.82
2022-12-11T06:30:39.115Z,7.79
2022-12-11T06:33:06.556Z,7.80
2022-12-11T06:35:36.300Z,7.79
2022-12-11T06:38:06.708Z,7.82
2022-12-11T06:40:33.223Z,7.83
2022-12-11T06:42:59.719Z,7.84
2022-12-11T06:45:26.370Z,7.91
2022-12-11T06:47:52.927Z,8.10
2022-12-11T06:50:19.800Z,8.28
2022-12-11T06:52:46.346Z,8.37
2022-12-11T06:55:13.378Z,8.41
2022-12-11T06:57:40.274Z,8.54
2022-12-11T07:00:07.536Z,8.67
2022-12-11T07:05:42.626Z,8.78
2022-12-11T07:08:09.245Z,8.72
2022-12-11T07:10:35.874Z,8.60
2022-12-11T07:13:02.596Z,8.54
2022-12-11T07:15:29.212Z,8.57
2022-12-11T07:17:55.756Z,8.61
2022-12-11T07:20:22.518Z,8.64
2022-12-11T07:22:49.131Z,8.65
2022-12-11T07:25:15.800Z,8.65
2022-12-11T07:27:42.446Z,8.66
2022-12-11T07:30:10.748Z,8.62
2022-12-11T07:32:37.607Z,8.58
2022-12-11T07:35:04.637Z,8.50
2022-12-11T07:37:31.216Z,8.43
2022-12-11T07:39:57.775Z,8.31
2022-12-11T07:42:24.296Z,8.24
2022-12-11T07:44:50.914Z,8.18
2022-12-11T07:47:19.079Z,8.18
2022-12-11T07:49:45.592Z,8.21
2022-12-11T07:52:12.124Z,8.25
2022-12-11T07:54:38.778Z,8.29
2022-12-11T07:57:12.239Z,8.32
2022-12-11T07:59:41.701Z,8.39
2022-12-11T08:02:13.916Z,8.46
2022-12-11T08:04:40.550Z,8.56
2022-12-11T08:07:07.163Z,8.62
2022-12-11T08:09:33.701Z,8.60
2022-12-11T08:12:00.296Z,8.61
2022-12-11T08:14:26.940Z,8.59
2022-12-11T08:16:53.774Z,8.56
2022-12-11T08:19:20.434Z,8.56
2022-12-11T08:21:47.182Z,8.66
2022-12-11T08:24:16.371Z,8.79
2022-12-11T08:26:42.875Z,8.94
2022-12-11T08:29:10.978Z,9.06
2022-12-11T08:31:37.779Z,9.14
2022-12-11T08:34:04.868Z,9.24
2022-12-11T08:36:31.523Z,9.37
2022-12-11T08:38:58.403Z,9.49
2022-12-11T08:41:36.706Z,9.59
2022-12-11T08:44:06.117Z,9.64
2022-12-11T08:46:33.682Z,9.71
2022-12-11T08:49:00.552Z,9.82
2022-12-11T08:51:30.408Z,9.91
2022-12-11T08:54:01.654Z,9.91
2022-12-11T08:56:29.219Z,9.92
2022-12-11T08:58:56.045Z,9.90
2022-12-11T09:01:25.161Z,9.82
2022-12-11T09:03:53.062Z,9.77
2022-12-11T09:06:21.712Z,9.73
2022-12-11T09:08:52.681Z,9.69
2022-12-11T09:11:29.012Z,9.68
2022-12-11T09:13:55.711Z,9.69
2022-12-11T09:16:24.810Z,9.68
2022-12-11T09:18:53.527Z,9.64
2022-12-11T09:21:22.490Z,9.62
2022-12-11T09:23:49.815Z,9.63
2022-12-11T09:26:18.483Z,9.61
2022-12-11T09:28:46.843Z,9.57
2022-12-11T09:31:18.694Z,9.54
2022-12-11T09:33:46.057Z,9.57
2022-12-11T09:36:12.882Z,9.58
2022-12-11T09:38:39.786Z,9.62
2022-12-11T09:41:23.132Z,9.66
2022-12-11T09:44:13.558Z,9.72
2022-12-11T09:46:40.997Z,9.73
2022-12-11T09:49:29.330Z,9.81
2022-12-11T09:52:34.417Z,9.99
2022-12-11T09:55:13.695Z,10.15
2022-12-11T09:58:00.224Z,10.26
2022-12-11T10:00:32.644Z,10.38
2022-12-11T10:03:08.844Z,10.49
2022-12-11T10:05:59.665Z,10.57
2022-12-11T10:08:32.040Z,10.62
2022-12-11T10:11:07.617Z,10.63
2022-12-11T10:14:02.024Z,10.70
2022-12-11T10:16:57.962Z,10.82
2022-12-11T10:19:30.508Z,10.99
2022-12-11T10:21:57.984Z,11.10
2022-12-11T10:27:34.263Z,11.11
2022-12-11T10:30:13.175Z,11.10
2022-12-11T10:33:03.002Z,11.13
2022-12-11T10:35:44.803Z,11.14
2022-12-11T10:38:16.019Z,11.12
2022-12-11T10:40:49.640Z,11.15
2022-12-11T10:43:16.242Z,11.17
2022-12-11T10:45:54.213Z,11.22
2022-12-11T10:48:21.356Z,11.22
2022-12-11T10:50:57.457Z,11.16
2022-12-11T10:53:24.343Z,11.08
2022-12-11T10:55:50.848Z,11.03
2022-12-11T10:58:20.261Z,11.00
2022-12-11T11:00:49.555Z,11.05
2022-12-11T11:03:35.888Z,11.10
2022-12-11T11:06:06.132Z,11.16
2022-12-11T11:08:44.578Z,11.20
2022-12-11T11:11:27.148Z,11.20
2022-12-11T11:14:10.711Z,11.18
2022-12-11T11:16:38.924Z,11.13
2022-12-11T11:19:06.130Z,11.08
2022-12-11T11:21:34.650Z,11.03
2022-12-11T11:24:01.323Z,11.03
2022-12-11T11:27:04.415Z,11.08
2022-12-11T11:29:32.990Z,11.16
2022-12-11T11:32:15.942Z,11.22
2022-12-11T11:34:44.132Z,11.26
2022-12-11T11:37:31.506Z,11.28
2022-12-11T11:40:04.393Z,11.28
2022-12-11T11:42:44.141Z,11.27
2022-12-11T11:45:16.940Z,11.24
2022-12-11T11:47:51.483Z,11.25
2022-12-11T11:50:20.590Z,11.25
2022-12-11T11:52:56.157Z,11.25
2022-12-11T11:55:47.044Z,11.24
2022-12-11T11:58:22.783Z,11.24
2022-12-11T12:00:49.736Z,11.22
2022-12-11T12:03:18.493Z,11.18
2022-12-11T12:05:54.998Z,11.17
2022-12-11T12:08:27.216Z,11.21
2022-12-11T12:11:15.646Z,11.24
2022-12-11T12:13:49.552Z,11.27
2022-12-11T12:16:53.116Z,11.25
2022-12-11T12:19:29.440Z,11.18
2022-12-11T12:21:56.090Z,11.14
2022-12-11T12:24:37.679Z,11.13
2022-12-11T12:27:53.139Z,11.15
2022-12-11T12:30:22.904Z,11.15
2022-12-11T12:33:12.896Z,11.15
2022-12-11T12:36:07.270Z,11.18
2022-12-11T12:38:55.471Z,11.22
2022-12-11T12:41:46.549Z,11.24
2022-12-11T12:44:16.487Z,11.27
2022-12-11T12:46:42.975Z,11.29
2022-12-11T12:49:26.000Z,11.33
2022-12-11T12:51:53.015Z,11.35
2022-12-11T12:54:20.104Z,11.36
2022-12-11T12:56:47.721Z,11.38
2022-12-11T12:59:25.507Z,11.39
2022-12-11T13:01:57.943Z,11.43
2022-12-11T13:04:55.554Z,11.47
2022-12-11T13:07:30.334Z,11.49
2022-12-11T13:10:00.949Z,11.41
2022-12-11T13:12:41.953Z,11.34
2022-12-11T13:15:40.827Z,11.29
2022-12-11T13:18:34.897Z,11.25
2022-12-11T13:21:03.205Z,11.26
2022-12-11T13:23:32.597Z,11.25
2022-12-11T13:26:02.159Z,11.23
2022-12-11T13:28:35.351Z,11.19
2022-12-11T13:31:07.425Z,10.99
2022-12-11T13:33:38.047Z,10.72
2022-12-11T13:36:31.798Z,10.59
2022-12-11T13:39:03.064Z,10.57
2022-12-11T13:41:30.886Z,10.61
2022-12-11T13:43:57.960Z,10.60
2022-12-11T13:46:30.931Z,10.59
2022-12-11T13:49:08.748Z,10.57
2022-12-11T13:51:37.630Z,10.60
2022-12-11T13:54:17.184Z,10.64
2022-12-11T13:56:54.499Z,10.67
2022-12-11T13:59:30.085Z,10.71
2022-12-11T14:02:21.789Z,10.74
2022-12-11T14:04:52.011Z,10.79
2022-12-11T14:07:26.713Z,10.82
2022-12-11T14:09:59.344Z,10.82
2022-12-11T14:12:25.871Z,10.80
2022-12-11T14:14:56.868Z,10.76
2022-12-11T14:17:29.752Z,10.76
2022-12-11T14:19:58.213Z,10.77
2022-12-11T14:22:27.593Z,10.82
2022-12-11T14:24:56.789Z,10.84
2022-12-11T14:27:24.503Z,10.87
2022-12-11T14:29:51.251Z,10.88
2022-12-11T14:32:32.590Z,10.89
2022-12-11T14:35:00.012Z,10.89
2022-12-11T14:37:28.549Z,10.88
2022-12-11T14:40:04.637Z,10.92
2022-12-11T14:42:35.007Z,10.99
2022-12-11T14:45:16.100Z,10.98
2022-12-11T14:47:43.902Z,10.94
2022-12-11T14:50:23.907Z,10.92
2022-12-11T14:52:56.809Z,10.91
2022-12-11T14:55:33.151Z,10.89
2022-12-11T14:58:03.513Z,10.89
2022-12-11T15:00:32.880Z,10.85
2022-12-11T15:03:09.967Z,10.85
2022-12-11T15:05:48.644Z,10.85
2022-12-11T15:08:24.606Z,10.84
2022-12-11T15:11:04.295Z,10.85
2022-12-11T15:13:32.007Z,10.84
2022-12-11T15:15:58.731Z,10.84
2022-12-11T15:18:37.144Z,10.88
2022-12-11T15:21:07.060Z,10.91
2022-12-11T15:23:46.607Z,10.90
2022-12-11T15:26:13.200Z,10.92
2022-12-11T15:28:40.169Z,10.94
2022-12-11T15:31:30.665Z,10.96
2022-12-11T15:33:57.405Z,10.91
2022-12-11T15:36:23.904Z,10.86
2022-12-11T15:38:50.485Z,10.84
2022-12-11T15:41:21.050Z,10.79
2022-12-11T15:43:47.930Z,10.73
2022-12-11T15:46:14.637Z,10.69
2022-12-11T15:48:41.196Z,10.65
2022-12-11T15:51:07.734Z,10.61
2022-12-11T15:53:34.310Z,10.55
2022-12-11T15:56:00.907Z,10.50
2022-12-11T15:58:27.890Z,10.48
2022-12-11T16:00:55.063Z,10.44
2022-12-11T16:03:23.184Z,10.40
2022-12-11T16:05:51.530Z,10.36
2022-12-11T16:08:21.155Z,10.22
2022-12-11T16:10:48.552Z,9.99
2022-12-11T16:13:15.426Z,9.79
2022-12-11T16:15:44.244Z,9.60
2022-12-11T16:18:16.353Z,9.38
2022-12-11T16:20:44.464Z,9.21
2022-12-11T16:23:11.959Z,9.08
2022-12-11T16:25:39.981Z,8.95
2022-12-11T16:28:07.837Z,8.81
2022-12-11T16:30:36.703Z,8.69
2022-12-11T16:33:11.844Z,8.67
2022-12-11T16:35:39.326Z,8.67
2022-12-11T16:38:05.815Z,8.73
2022-12-11T16:40:32.446Z,8.75
2022-12-11T16:42:59.095Z,8.72
2022-12-11T16:45:26.473Z,8.71
2022-12-11T16:47:53.300Z,8.69
2022-12-11T16:50:20.321Z,8.57
2022-12-11T16:52:47.419Z,8.43
2022-12-11T16:55:14.918Z,8.27
2022-12-11T16:57:42.103Z,8.12
2022-12-11T17:00:12.131Z,7.89
2022-12-11T17:02:38.959Z,7.58
2022-12-11T17:05:05.948Z,7.30
2022-12-11T17:07:33.311Z,7.09
2022-12-11T17:10:01.983Z,6.91
2022-12-11T17:12:28.817Z,6.78
2022-12-11T17:14:56.258Z,6.68
2022-12-11T17:17:22.819Z,6.57
2022-12-11T17:19:49.439Z,6.49
2022-12-11T17:22:16.064Z,6.39
2022-12-11T17:24:42.695Z,6.30
2022-12-11T17:27:09.262Z,6.33
2022-12-11T17:29:35.794Z,6.32
2022-12-11T17:32:03.331Z,6.29
2022-12-11T17:34:36.084Z,6.23
2022-12-11T17:37:04.826Z,6.16
2022-12-11T17:39:31.414Z,6.10
2022-12-11T17:41:57.920Z,6.04
2022-12-11T17:44:26.773Z,5.98
2022-12-11T17:46:53.808Z,5.88
2022-12-11T17:49:20.457Z,5.83
2022-12-11T17:51:48.036Z,5.90
2022-12-11T17:54:14.666Z,6.06
2022-12-11T17:56:41.436Z,6.20
2022-12-11T17:59:07.980Z,6.33
2022-12-11T18:01:34.757Z,6.42
2022-12-11T18:04:01.948Z,6.47
2022-12-11T18:06:29.557Z,6.49
2022-12-11T18:08:56.570Z,6.55
2022-12-11T18:11:23.904Z,6.57
2022-12-11T18:13:51.777Z,6.56
2022-12-11T18:16:21.299Z,6.55
2022-12-11T18:18:48.595Z,6.53
2022-12-11T18:21:18.075Z,6.48
2022-12-11T18:23:45.279Z,6.43
2022-12-11T18:26:14.433Z,6.37
2022-12-11T18:28:42.324Z,6.32
2022-12-11T18:31:09.915Z,6.30
2022-12-11T18:33:38.848Z,6.34
2022-12-11T18:36:06.121Z,6.34
2022-12-11T18:38:33.656Z,6.37
2022-12-11T18:41:07.361Z,6.32
2022-12-11T18:43:34.339Z,6.26
2022-12-11T18:46:00.866Z,6.18
2022-12-11T18:48:27.407Z,6.10
2022-12-11T18:50:54.335Z,6.05
2022-12-11T18:53:21.000Z,5.99
2022-12-11T18:55:48.961Z,5.95
2022-12-11T18:58:17.947Z,5.86
2022-12-11T19:00:45.303Z,5.78
2022-12-11T19:03:13.726Z,5.74
2022-12-11T19:05:42.563Z,5.69
2022-12-11T19:08:10.398Z,5.65
2022-12-11T19:10:44.769Z,5.64
2022-12-11T19:13:12.527Z,5.59
2022-12-11T19:15:43.360Z,5.56
2022-12-11T19:18:10.658Z,5.57
2022-12-11T19:20:55.672Z,5.65
2022-12-11T19:23:24.580Z,5.74
2022-12-11T19:25:51.429Z,5.82
2022-12-11T19:28:17.975Z,5.86
2022-12-11T19:30:46.438Z,5.88
2022-12-11T19:33:13.487Z,5.89
2022-12-11T19:35:40.382Z,5.88
2022-12-11T19:38:08.404Z,5.89
2022-12-11T19:40:42.571Z,5.93
2022-12-11T19:43:09.757Z,5.82
2022-12-11T19:45:36.738Z,5.66
2022-12-11T19:48:03.432Z,5.51
2022-12-11T19:50:30.114Z,5.44
2022-12-11T19:52:56.563Z,5.46
2022-12-11T19:55:23.178Z,5.48
2022-12-11T19:57:49.846Z,5.47
2022-12-11T20:00:16.755Z,5.46
2022-12-11T20:02:43.456Z,5.47
2022-12-11T20:05:11.294Z,5.47
2022-12-11T20:07:38.739Z,5.45
2022-12-11T20:10:05.925Z,5.43
2022-12-11T20:12:32.708Z,5.41
2022-12-11T20:14:59.224Z,5.35
2022-12-11T20:17:25.813Z,5.30
2022-12-11T20:19:53.893Z,5.26
2022-12-11T20:22:20.491Z,5.23
2022-12-11T20:24:46.991Z,5.22
2022-12-11T20:27:13.690Z,5.21
2022-12-11T20:29:40.420Z,5.18
2022-12-11T20:32:07.560Z,5.18
2022-12-11T20:34:34.263Z,5.20
2022-12-11T20:37:00.888Z,5.21
2022-12-11T20:39:27.500Z,5.23
2022-12-11T20:41:54.259Z,5.22
2022-12-11T20:44:20.898Z,5.21
2022-12-11T20:46:47.528Z,5.19
2022-12-11T20:49:14.123Z,5.18
2022-12-11T20:51:41.101Z,5.15
2022-12-11T20:54:07.996Z,5.11
2022-12-11T20:56:34.583Z,5.11
2022-12-11T20:59:01.156Z,5.11
2022-12-11T21:01:30.670Z,5.11
2022-12-11T21:03:57.867Z,5.12
2022-12-11T21:06:30.914Z,5.13
2022-12-11T21:09:03.932Z,5.13
2022-12-11T21:11:30.513Z,5.14
2022-12-11T21:13:57.134Z,5.14
2022-12-11T21:16:24.531Z,5.12
2022-12-11T21:18:51.923Z,5.12
2022-12-11T21:21:18.512Z,5.11
2022-12-11T21:23:45.244Z,5.11
2022-12-11T21:26:12.420Z,5.11
2022-12-11T21:28:39.100Z,5.10
2022-12-11T21:31:11.248Z,5.10
2022-12-11T21:33:37.681Z,5.04
2022-12-11T21:36:06.497Z,5.01
2022-12-11T21:38:33.529Z,4.97
2022-12-11T21:41:17.097Z,4.96
2022-12-11T21:46:32.840Z,4.90
2022-12-11T21:48:59.501Z,4.88
2022-12-11T21:51:35.696Z,4.86
2022-12-11T21:54:05.326Z,4.85
2022-12-11T21:56:33.057Z,4.83
2022-12-11T21:59:01.344Z,4.81
2022-12-11T22:01:35.126Z,4.80
2022-12-11T22:04:02.126Z,4.79
2022-12-11T22:06:28.726Z,4.83
2022-12-11T22:08:55.292Z,4.86
2022-12-11T22:11:26.140Z,4.90
2022-12-11T22:13:53.111Z,4.94
2022-12-11T22:16:19.905Z,4.93
2022-12-11T22:18:46.911Z,4.92
2022-12-11T22:21:14.040Z,4.88
2022-12-11T22:23:40.783Z,4.84
2022-12-11T22:26:09.006Z,4.81
2022-12-11T22:28:35.609Z,4.79
2022-12-11T22:31:02.142Z,4.76
2022-12-11T22:33:28.764Z,4.76
2022-12-11T22:35:59.540Z,4.76
2022-12-11T22:38:26.277Z,4.74
2022-12-11T22:40:53.955Z,4.73
2022-12-11T22:43:20.636Z,4.72
2022-12-11T22:45:47.265Z,4.68
2022-12-11T22:48:13.885Z,4.65
2022-12-11T22:50:40.981Z,4.60
2022-12-11T22:53:07.573Z,4.56
2022-12-11T22:55:34.449Z,4.53
2022-12-11T22:58:01.064Z,4.51
2022-12-11T23:00:27.871Z,4.48
2022-12-11T23:02:54.464Z,4.47
2022-12-11T23:05:21.066Z,4.45
2022-12-11T23:07:47.828Z,4.45
2022-12-11T23:10:14.503Z,4.44
2022-12-11T23:12:41.094Z,4.47
2022-12-11T23:15:08.243Z,4.49
2022-12-11T23:17:35.119Z,4.47
2022-12-11T23:20:03.874Z,4.45
2022-12-11T23:22:30.570Z,4.45
2022-12-11T23:24:57.168Z,4.42
2022-12-11T23:27:23.715Z,4.41
2022-12-11T23:29:50.209Z,4.42
2022-12-11T23:32:16.730Z,4.44
2022-12-11T23:34:43.253Z,4.44
2022-12-11T23:37:10.749Z,4.43
2022-12-11T23:39:37.354Z,4.43
2022-12-11T23:42:03.964Z,4.39
2022-12-11T23:44:30.484Z,4.37
2022-12-11T23:46:57.039Z,4.40
2022-12-11T23:49:23.547Z,4.40
2022-12-11T23:51:50.139Z,4.41
2022-12-11T23:54:16.647Z,4.41
2022-12-11T23:56:43.133Z,4.38
2022-12-11T23:59:12.499Z,4.34
